Flight Track Log - Related Links

Times and Time Zones

All times are in EDT time to prevent confusion due to time zone crossing. See the AAL700 flight status page for this flight to view local times or setup timezone preferences in your user account.

Time Position Orientation Groundspeed Altitude Reporting Facility
EDT Latitude Longitude Course Direction KTS MPH feet Rate Location/Type
Tue 07:12:22 AM 32.8833 -97.0333 67° East 178 205 1,100  Level Dallas / Fort Worth TRACON
Tue 07:13:04 AM 32.8500 -97.0167 157° South 167 192 2,500 1,474 Climbing Dallas / Fort Worth TRACON
Tue 07:14:00 AM 32.7667 -96.8406 90° East  Level FlightAware Approximate
Tue 07:14:16 AM 32.7833 -96.9833 157° South 260 299 3,900  Level Dallas / Fort Worth TRACON
Tue 07:15:00 AM 32.8060 -96.6986 68° East  Level FlightAware Approximate
Tue 07:15:04 AM 32.8000 -96.9167 73° East 280 322 5,800  Level Dallas / Fort Worth TRACON
Tue 07:16:00 AM 32.8668 -96.5665 59° Northeast  Level FlightAware Approximate
Tue 07:16:04 AM 32.8167 -96.8333 77° East 278 320 8,700  Level Dallas / Fort Worth TRACON
Tue 07:17:00 AM 32.9247 -96.4323 67° East  Level FlightAware Approximate
Tue 07:17:16 AM 32.8500 -96.7167 71° East 316 364 10,800  Level Dallas / Fort Worth TRACON
Tue 07:18:54 AM 32.9075 -96.5450 68° East 373 429 13,900 2,127 Climbing Fort Worth Center
Tue 07:19:54 AM 32.9422 -96.4258 71° East 373 429 16,400 2,250 Climbing Fort Worth Center
Tue 07:20:54 AM 32.9725 -96.3114 72° East 385 443 18,400 2,200 Climbing Fort Worth Center
Tue 07:21:54 AM 32.9922 -96.1675 81° East 397 457 20,800 2,100 Climbing Fort Worth Center
Tue 07:22:54 AM 33.0117 -96.0433 79° East 412 474 22,600 1,850 Climbing Fort Worth Center
Tue 07:23:54 AM 33.0289 -95.9019 82° East 417 480 24,500 1,800 Climbing Fort Worth Center
Tue 07:24:54 AM 33.0481 -95.7603 81° East 428 493 26,200 1,600 Climbing Fort Worth Center
Tue 07:25:54 AM 33.0689 -95.6136 80° East 428 493 27,700 1,400 Climbing Fort Worth Center
Tue 07:26:54 AM 33.1042 -95.4519 75° East 435 501 29,000 1,400 Climbing Fort Worth Center
Tue 07:27:54 AM 33.1497 -95.3044 70° East 457 526 30,500 1,600 Climbing Fort Worth Center
Tue 07:28:54 AM 33.1950 -95.1544 70° East 469 540 32,200 1,550 Climbing Fort Worth Center
Tue 07:29:54 AM 33.2403 -95.0067 70° East 469 540 33,600 1,350 Climbing Fort Worth Center
Tue 07:30:54 AM 33.2856 -94.8639 69° East 469 540 34,900 1,250 Climbing Fort Worth Center
Tue 07:31:54 AM 33.3283 -94.7133 71° East 469 540 36,100 1,100 Climbing Fort Worth Center
Tue 07:32:54 AM 33.3731 -94.5653 70° East 474 545 37,100 1,050 Climbing Fort Worth Center
Tue 07:33:54 AM 33.4175 -94.4147 70° East 474 545 38,200 950 Climbing Fort Worth Center
Tue 07:34:54 AM 33.4600 -94.2714 70° East 469 540 39,000 400 Climbing Fort Worth Center
Tue 07:35:54 AM 33.5064 -94.1225 69° East 463 533 39,000  Level Fort Worth Center
Tue 07:36:54 AM 33.5586 -93.9711 67° East 474 545 39,000  Level Fort Worth Center
Tue 07:37:54 AM 33.6131 -93.8269 66° East 479 551 39,000  Level Fort Worth Center
Tue 07:38:54 AM 33.6692 -93.6822 65° Northeast 479 551 39,000  Level Fort Worth Center
Tue 07:39:24 AM 33.6942 -93.6153 66° East 471 542 39,000  Level Memphis Center
Tue 07:40:24 AM 33.7500 -93.4700 65° Northeast 471 542 39,000  Level Memphis Center
Tue 07:41:24 AM 33.8036 -93.3269 66° East 471 542 39,000  Level Memphis Center
Tue 07:42:24 AM 33.8592 -93.1839 65° Northeast 471 542 39,000  Level Memphis Center
Tue 07:43:24 AM 33.9144 -93.0403 65° Northeast 471 542 39,000  Level Memphis Center
Tue 07:44:24 AM 33.9675 -92.8967 66° East 471 542 39,000  Level Memphis Center
Tue 07:45:24 AM 34.0225 -92.7531 65° Northeast 471 542 39,000  Level Memphis Center
Tue 07:46:24 AM 34.0733 -92.6064 67° East 471 542 39,000  Level Memphis Center
Tue 07:47:24 AM 34.1258 -92.4597 67° East 471 542 39,000  Level Memphis Center
Tue 07:48:24 AM 34.1825 -92.3131 65° Northeast 476 548 39,000  Level Memphis Center
Tue 07:49:24 AM 34.2347 -92.1661 67° East 476 548 39,000  Level Memphis Center
Tue 07:50:24 AM 34.2889 -92.0189 66° East 476 548 39,000  Level Memphis Center
Tue 07:51:24 AM 34.3431 -91.8739 66° East 476 548 39,000  Level Memphis Center
Tue 07:52:24 AM 34.3969 -91.7239 66° East 476 548 39,000  Level Memphis Center
Tue 07:53:24 AM 34.4464 -91.5939 65° Northeast 464 534 39,000  Level Memphis Center
Tue 07:54:24 AM 34.5061 -91.4333 66° East 471 542 39,000  Level Memphis Center
Tue 07:55:24 AM 34.5575 -91.2828 67° East 477 549 39,000  Level Memphis Center
Tue 07:56:24 AM 34.6128 -91.1369 65° Northeast 477 549 39,000  Level Memphis Center
Tue 07:57:24 AM 34.6658 -90.9858 67° East 477 549 39,000  Level Memphis Center
Tue 07:58:24 AM 34.7206 -90.8347 66° East 477 549 39,000  Level Memphis Center
Tue 07:59:24 AM 34.7733 -90.6833 67° East 477 549 39,000  Level Memphis Center
Tue 08:00:24 AM 34.8258 -90.5342 67° East 477 549 39,000  Level Memphis Center
Tue 08:01:24 AM 34.8800 -90.3797 67° East 477 549 39,000  Level Memphis Center
Tue 08:02:24 AM 34.9342 -90.2306 66° East 477 549 39,000  Level Memphis Center
Tue 08:03:24 AM 34.9819 -90.0936 67° East 477 549 39,000  Level Memphis Center
Tue 08:04:24 AM 35.0381 -89.9411 66° East 483 556 39,000  Level Memphis Center
Tue 08:05:24 AM 35.0936 -89.7836 67° East 493 567 39,000  Level Memphis Center
Tue 08:06:24 AM 35.1511 -89.6131 68° East 493 567 39,000  Level Memphis Center
Tue 08:07:24 AM 35.2064 -89.4575 66° East 493 567 39,000  Level Memphis Center
Tue 08:08:24 AM 35.2572 -89.3069 67° East 493 567 39,000  Level Memphis Center
Tue 08:09:24 AM 35.3103 -89.1536 67° East 488 562 39,000  Level Memphis Center
Tue 08:10:24 AM 35.3628 -89.0025 67° East 483 556 39,000  Level Memphis Center
Tue 08:11:24 AM 35.4153 -88.8514 67° East 475 547 39,000  Level Memphis Center
Tue 08:12:24 AM 35.4594 -88.7103 69° East 475 547 39,000  Level Memphis Center
Tue 08:13:24 AM 35.5117 -88.5589 67° East 480 552 39,000  Level Memphis Center
Tue 08:14:24 AM 35.5678 -88.4097 65° Northeast 480 552 39,000  Level Memphis Center
Tue 08:15:24 AM 35.6194 -88.2500 68° East 480 552 39,000  Level Memphis Center
Tue 08:16:24 AM 35.6769 -88.0903 66° East 480 552 39,000  Level Memphis Center
Tue 08:17:24 AM 35.7303 -87.9353 67° East 479 551 39,000  Level Memphis Center
Tue 08:18:24 AM 35.7794 -87.7778 69° East 486 559 39,000  Level Memphis Center
Tue 08:19:24 AM 35.8303 -87.6250 68° East 486 559 39,000  Level Memphis Center
Tue 08:20:24 AM 35.8808 -87.4697 68° East 480 552 39,000  Level Memphis Center
Tue 08:21:24 AM 35.9336 -87.3114 68° East 487 560 39,000  Level Memphis Center
Tue 08:22:24 AM 35.9839 -87.1556 68° East 482 555 39,000  Level Memphis Center
Tue 08:23:24 AM 36.0339 -86.9997 68° East 482 555 39,000  Level Memphis Center
Tue 08:24:24 AM 36.0814 -86.8386 70° East 488 562 39,000  Level Memphis Center
Tue 08:25:24 AM 36.1331 -86.6794 68° East 495 570 39,000  Level Memphis Center
Tue 08:26:24 AM 36.1847 -86.5231 68° East 495 570 39,000  Level Memphis Center
Tue 08:27:24 AM 36.2381 -86.3661 67° East 495 570 39,000  Level Memphis Center
Tue 08:29:08 AM 36.3250 -86.1022 68° East 490 564 39,000  Level Indianapolis Center
Tue 08:30:09 AM 36.3761 -85.9433 68° East 489 563 39,000  Level Indianapolis Center
Tue 08:31:11 AM 36.4219 -85.7961 69° East 495 570 39,000  Level Indianapolis Center
Tue 08:32:13 AM 36.4828 -85.6053 68° East 494 568 39,000  Level Indianapolis Center
Tue 08:33:14 AM 36.5319 -85.4447 69° East 495 570 39,000  Level Indianapolis Center
Tue 08:34:16 AM 36.5825 -85.2842 69° East 498 573 39,000  Level Indianapolis Center
Tue 08:35:18 AM 36.6311 -85.1247 69° East 492 566 39,000  Level Indianapolis Center
Tue 08:36:20 AM 36.6808 -84.9647 69° East 492 566 39,000  Level Indianapolis Center
Tue 08:37:21 AM 36.7297 -84.8050 69° East 492 566 39,000  Level Indianapolis Center
Tue 08:38:23 AM 36.7786 -84.6458 69° East 490 564 39,000  Level Indianapolis Center
Tue 08:39:25 AM 36.8261 -84.4864 70° East 492 566 39,000  Level Indianapolis Center
Tue 08:40:26 AM 36.8831 -84.3011 69° East 491 565 39,000  Level Indianapolis Center
Tue 08:41:28 AM 36.9300 -84.1403 70° East 493 567 39,000  Level Indianapolis Center
Tue 08:42:30 AM 36.9794 -83.9808 69° East 493 567 39,000  Level Indianapolis Center
Tue 08:43:31 AM 37.0272 -83.8194 70° East 496 571 39,000  Level Indianapolis Center
Tue 08:44:33 AM 37.0742 -83.6592 70° East 489 563 39,000  Level Indianapolis Center
Tue 08:45:35 AM 37.1206 -83.4961 70° East 493 567 39,000  Level Indianapolis Center
Tue 08:46:36 AM 37.1678 -83.3342 70° East 492 566 39,000  Level Indianapolis Center
Tue 08:47:38 AM 37.2142 -83.1717 70° East 489 563 39,000  Level Indianapolis Center
Tue 08:48:40 AM 37.2697 -82.9803 70° East 494 568 39,000  Level Indianapolis Center
Tue 08:49:41 AM 37.3172 -82.8178 70° East 492 566 39,000  Level Indianapolis Center
Tue 08:50:43 AM 37.3619 -82.6558 71° East 489 563 39,000  Level Indianapolis Center
Tue 08:51:45 AM 37.4078 -82.4947 70° East 487 560 39,000  Level Indianapolis Center
Tue 08:52:46 AM 37.4522 -82.3325 71° East 488 562 39,000  Level Indianapolis Center
Tue 08:53:48 AM 37.4978 -82.1700 70° East 490 564 39,000  Level Indianapolis Center
Tue 08:54:50 AM 37.5431 -82.0067 71° East 493 567 39,000  Level Indianapolis Center
Tue 08:55:51 AM 37.5867 -81.8439 71° East 490 564 39,000  Level Indianapolis Center
Tue 08:56:53 AM 37.6392 -81.6547 71° East 489 563 39,000  Level Indianapolis Center
Tue 08:57:55 AM 37.6833 -81.4906 71° East 492 566 39,000  Level Indianapolis Center
Tue 08:58:56 AM 37.7217 -81.3439 72° East 491 565 39,000  Level Indianapolis Center
Tue 08:59:58 AM 37.7725 -81.1542 71° East 490 564 39,000  Level Indianapolis Center
Tue 09:01:00 AM 37.7889 -80.9894 83° East 485 558 39,000  Level Indianapolis Center
Tue 09:02:02 AM 37.8003 -80.8267 85° East 479 551 39,000  Level Indianapolis Center
Tue 09:03:03 AM 37.8106 -80.6567 86° East 485 558 39,000  Level Indianapolis Center
Tue 09:04:05 AM 37.8225 -80.4614 86° East 487 560 39,000  Level Indianapolis Center
Tue 09:05:07 AM 37.8342 -80.2958 85° East 486 559 39,000  Level Indianapolis Center
Tue 09:06:09 AM 37.8442 -80.1278 86° East 490 564 39,000  Level Indianapolis Center
Tue 09:07:10 AM 37.8556 -79.9258 86° East 492 566 39,000  Level Indianapolis Center
Tue 09:08:12 AM 37.8653 -79.7556 86° East 495 570 39,000  Level Indianapolis Center
Tue 09:09:14 AM 37.8753 -79.5856 86° East 494 568 39,000  Level Indianapolis Center
Tue 09:10:28 AM 37.8925 -79.3783 84° East 494 568 39,000  Level Washington Center
Tue 09:11:28 AM 37.9000 -79.2050 87° East 494 568 39,000  Level Washington Center
Tue 09:12:30 AM 37.9133 -79.0319 84° East 494 568 39,000  Level Washington Center
Tue 09:13:30 AM 37.9353 -78.8433 82° East 494 568 39,000  Level Washington Center
Tue 09:14:28 AM 37.9586 -78.6731 80° East 494 568 39,000  Level Washington Center
Tue 09:15:30 AM 37.9775 -78.4975 82° East 499 574 39,000  Level Washington Center
Tue 09:16:30 AM 37.9983 -78.3244 81° East 499 574 39,000  Level Washington Center
Tue 09:17:28 AM 38.0122 -78.1694 83° East 499 574 39,000  Level Washington Center
Tue 09:18:28 AM 38.0286 -77.9775 84° East 499 574 39,000  Level Washington Center
Tue 09:19:29 AM 38.0317 -77.8142 89° East 499 574 39,000  Level Washington Center
Tue 09:20:30 AM 38.0433 -77.6353 85° East 504 580 39,000  Level Washington Center
Tue 09:21:29 AM 38.0569 -77.4325 85° East 511 588 39,000  Level Washington Center
Tue 09:22:29 AM 38.1258 -77.2811 60° Northeast 488 562 39,000  Level Washington Center
Tue 09:23:30 AM 38.1986 -77.1481 55° Northeast 488 562 39,000  Level Washington Center
Tue 09:24:27 AM 38.2817 -77.0017 54° Northeast 501 577 39,000  Level Washington Center
Tue 09:25:28 AM 38.3647 -76.8442 56° Northeast 501 577 39,000 -298 Level Washington Center
Tue 09:26:28 AM 38.4456 -76.6997 54° Northeast 495 570 38,400 -1,190 Descending Washington Center
Tue 09:27:29 AM 38.5258 -76.5550 55° Northeast 495 570 36,600 -1,835 Descending Washington Center
Tue 09:28:29 AM 38.6083 -76.4047 55° Northeast 495 570 34,700 -1,934 Descending Washington Center
Tue 09:29:30 AM 38.6906 -76.2539 55° Northeast 507 583 32,700 -1,916 Descending Washington Center
Tue 09:30:28 AM 38.7706 -76.1108 54° Northeast 507 583 30,900 -1,916 Descending Washington Center
Tue 09:31:29 AM 38.8503 -75.9675 54° Northeast 502 578 28,900 -1,966 Descending Washington Center
Tue 09:32:27 AM 38.9319 -75.8211 54° Northeast 502 578 27,000 -958 Descending Washington Center
Tue 09:33:28 AM 39.0278 -75.7092 42° Northeast 466 536 27,000 -443 Level Washington Center
Tue 09:34:29 AM 39.1300 -75.6103 37° Northeast 466 536 26,100 -1,350 Descending Washington Center
Tue 09:35:28 AM 39.2342 -75.5139 36° Northeast 461 531 24,300 -1,714 Descending Washington Center
Tue 09:36:28 AM 39.3342 -75.4253 34° Northeast 449 517 22,700 -1,587 Descending Washington Center
Tue 09:37:29 AM 39.4383 -75.3364 33° Northeast 444 511 21,100 -1,623 Descending Washington Center
Tue 09:38:30 AM 39.5339 -75.2497 35° Northeast 432 497 19,400 -1,587 Descending Washington Center
Tue 09:39:30 AM 39.6272 -75.1606 36° Northeast 427 491 17,900 -1,424 Descending Washington Center
Tue 09:40:28 AM 39.7103 -75.0844 35° Northeast 410 472 16,600 -1,424 Descending Washington Center
Tue 09:41:28 AM 39.8119 -75.0000 33° Northeast 398 458 15,100 -1,400 Descending Washington Center
Tue 09:42:28 AM 39.8908 -74.9261 36° Northeast 392 451 13,800 -1,414 Descending Washington Center
Tue 09:43:48 AM 40.0000 -74.7833 45° Northeast 385 443 11,800 -1,500 Descending New York TRACON
Tue 09:44:48 AM 40.0833 -74.6833 43° Northeast 383 441 10,300 -939 Descending New York TRACON
Tue 09:45:43 AM 40.1333 -74.6000 52° Northeast 360 414 10,000 -158 Descending New York TRACON
Tue 09:46:42 AM 40.2000 -74.5000 49° Northeast 359 413 10,000 -151 Level New York TRACON
Tue 09:47:42 AM 40.2667 -74.4167 44° Northeast 311 358 9,700 -684 Descending New York TRACON
Tue 09:48:36 AM 40.3167 -74.3500 45° Northeast 278 320 8,700 -1,304 Descending New York TRACON
Tue 09:49:37 AM 40.3667 -74.2833 45° Northeast 275 316 7,200 -850 Descending New York TRACON
Tue 09:50:36 AM 40.4333 -74.2167 37° Northeast 268 308 7,000 -100 Descending New York TRACON
Tue 09:51:37 AM 40.4833 -74.1500 45° Northeast 271 312 7,000 -650 Level New York TRACON
Tue 09:52:36 AM 40.5333 -74.0833 45° Northeast 266 306 5,700 -1,311 Descending New York TRACON
Tue 09:53:36 AM 40.6000 -74.0333 30° Northeast 261 300 4,400 -887 Descending New York TRACON
Tue 09:54:31 AM 40.6500 -73.9833 37° Northeast 255 293 4,000 -209 Descending New York TRACON
Tue 09:55:31 AM 40.7000 -73.9167 45° Northeast 259 298 4,000  Level New York TRACON
Tue 09:56:31 AM 40.7333 -73.8333 62° Northeast 256 295 4,000  Level New York TRACON
Tue 09:57:31 AM 40.7667 -73.7667 57° Northeast 250 288 4,000 -252 Level New York TRACON
Tue 09:58:30 AM 40.8167 -73.7333 27° Northeast 188 216 3,500 -632 Descending New York TRACON
Tue 09:59:25 AM 40.8667 -73.7000 27° Northeast 189 217 2,800 -783 Descending New York TRACON
Tue 10:00:25 AM 40.8833 -73.7500 294° West 185 213 2,000 -500 Descending New York TRACON
Tue 10:01:25 AM 40.8667 -73.8000 246° West 195 224 1,800 -550 Descending New York TRACON
Tue 10:02:25 AM 40.8167 -73.8333 207° Southwest 151 174 900 -900 Descending New York TRACON

Login

Don't have an account? Register now (free) for customized features, flight alerts, and more!